sensor_id;sensor_type;location;lat;lon;timestamp;P1;durP1;ratioP1;P2;durP2;ratioP2
35418;SDS011;21525;41.240;16.500;2022-11-11T00:02:15;23.73;;;17.13;;
35418;SDS011;21525;41.240;16.500;2022-11-11T00:05:00;23.58;;;17.63;;
35418;SDS011;21525;41.240;16.500;2022-11-11T00:07:44;23.17;;;17.23;;
35418;SDS011;21525;41.240;16.500;2022-11-11T00:10:29;23.77;;;17.30;;
35418;SDS011;21525;41.240;16.500;2022-11-11T00:13:14;23.67;;;16.83;;
35418;SDS011;21525;41.240;16.500;2022-11-11T00:16:09;22.17;;;16.48;;
35418;SDS011;21525;41.240;16.500;2022-11-11T00:18:55;21.02;;;16.38;;
35418;SDS011;21525;41.240;16.500;2022-11-11T00:21:58;21.35;;;16.63;;
35418;SDS011;21525;41.240;16.500;2022-11-11T00:25:02;20.52;;;16.25;;
35418;SDS011;21525;41.240;16.500;2022-11-11T00:27:49;20.48;;;16.02;;
35418;SDS011;21525;41.240;16.500;2022-11-11T00:30:33;23.13;;;16.70;;
35418;SDS011;21525;41.240;16.500;2022-11-11T00:33:18;24.10;;;15.63;;
35418;SDS011;21525;41.240;16.500;2022-11-11T00:36:02;23.08;;;17.38;;
35418;SDS011;21525;41.240;16.500;2022-11-11T00:38:47;25.38;;;17.67;;
35418;SDS011;21525;41.240;16.500;2022-11-11T00:41:32;28.70;;;17.50;;
35418;SDS011;21525;41.240;16.500;2022-11-11T00:44:17;48.45;;;19.23;;
35418;SDS011;21525;41.240;16.500;2022-11-11T00:47:01;26.00;;;16.63;;
35418;SDS011;21525;41.240;16.500;2022-11-11T00:50:05;23.75;;;16.92;;
35418;SDS011;21525;41.240;16.500;2022-11-11T00:53:17;24.08;;;16.58;;
35418;SDS011;21525;41.240;16.500;2022-11-11T00:56:03;45.92;;;20.10;;
35418;SDS011;21525;41.240;16.500;2022-11-11T00:58:47;24.75;;;16.95;;
35418;SDS011;21525;41.240;16.500;2022-11-11T01:01:33;23.10;;;17.20;;
35418;SDS011;21525;41.240;16.500;2022-11-11T01:04:19;24.10;;;17.08;;
35418;SDS011;21525;41.240;16.500;2022-11-11T01:07:03;25.77;;;17.73;;
35418;SDS011;21525;41.240;16.500;2022-11-11T01:09:47;23.13;;;17.42;;
35418;SDS011;21525;41.240;16.500;2022-11-11T01:12:33;24.35;;;18.05;;
35418;SDS011;21525;41.240;16.500;2022-11-11T01:15:17;24.80;;;17.63;;
35418;SDS011;21525;41.240;16.500;2022-11-11T01:18:02;25.20;;;19.00;;
35418;SDS011;21525;41.240;16.500;2022-11-11T01:20:47;23.77;;;17.63;;
35418;SDS011;21525;41.240;16.500;2022-11-11T01:23:40;26.00;;;17.55;;
35418;SDS011;21525;41.240;16.500;2022-11-11T01:26:26;24.38;;;16.73;;
35418;SDS011;21525;41.240;16.500;2022-11-11T01:29:11;25.88;;;19.27;;
35418;SDS011;21525;41.240;16.500;2022-11-11T01:31:56;28.05;;;20.60;;
35418;SDS011;21525;41.240;16.500;2022-11-11T01:34:40;29.70;;;20.52;;
35418;SDS011;21525;41.240;16.500;2022-11-11T01:37:24;25.42;;;18.00;;
35418;SDS011;21525;41.240;16.500;2022-11-11T01:40:08;24.48;;;17.92;;
35418;SDS011;21525;41.240;16.500;2022-11-11T01:48:43;27.92;;;18.75;;
35418;SDS011;21525;41.240;16.500;2022-11-11T01:57:35;25.90;;;17.75;;
35418;SDS011;21525;41.240;16.500;2022-11-11T02:00:35;25.13;;;18.33;;
35418;SDS011;21525;41.240;16.500;2022-11-11T02:03:20;26.23;;;18.10;;
35418;SDS011;21525;41.240;16.500;2022-11-11T02:06:07;23.53;;;17.77;;
35418;SDS011;21525;41.240;16.500;2022-11-11T02:08:52;24.77;;;17.58;;
35418;SDS011;21525;41.240;16.500;2022-11-11T02:11:37;25.38;;;18.95;;
35418;SDS011;21525;41.240;16.500;2022-11-11T02:14:43;30.02;;;19.08;;
35418;SDS011;21525;41.240;16.500;2022-11-11T02:17:30;22.70;;;17.17;;
35418;SDS011;21525;41.240;16.500;2022-11-11T02:20:18;21.67;;;16.95;;
35418;SDS011;21525;41.240;16.500;2022-11-11T02:26:10;25.27;;;18.05;;
35418;SDS011;21525;41.240;16.500;2022-11-11T02:29:00;25.15;;;17.65;;
35418;SDS011;21525;41.240;16.500;2022-11-11T02:31:46;27.42;;;17.65;;
35418;SDS011;21525;41.240;16.500;2022-11-11T02:34:31;23.52;;;17.67;;
35418;SDS011;21525;41.240;16.500;2022-11-11T02:37:21;25.88;;;18.42;;
35418;SDS011;21525;41.240;16.500;2022-11-11T02:40:08;30.08;;;20.30;;
35418;SDS011;21525;41.240;16.500;2022-11-11T02:43:00;27.65;;;21.98;;
35418;SDS011;21525;41.240;16.500;2022-11-11T02:45:44;30.88;;;23.33;;
35418;SDS011;21525;41.240;16.500;2022-11-11T02:48:29;26.88;;;19.45;;
35418;SDS011;21525;41.240;16.500;2022-11-11T02:51:13;23.98;;;19.13;;
35418;SDS011;21525;41.240;16.500;2022-11-11T02:53:58;23.60;;;18.10;;
35418;SDS011;21525;41.240;16.500;2022-11-11T02:56:42;26.42;;;18.80;;
35418;SDS011;21525;41.240;16.500;2022-11-11T02:59:45;28.48;;;20.45;;
35418;SDS011;21525;41.240;16.500;2022-11-11T03:02:30;24.80;;;19.73;;
35418;SDS011;21525;41.240;16.500;2022-11-11T03:05:15;24.45;;;19.02;;
35418;SDS011;21525;41.240;16.500;2022-11-11T03:07:59;26.45;;;20.75;;
35418;SDS011;21525;41.240;16.500;2022-11-11T03:10:44;24.15;;;19.02;;
35418;SDS011;21525;41.240;16.500;2022-11-11T03:13:28;25.88;;;18.88;;
35418;SDS011;21525;41.240;16.500;2022-11-11T03:16:13;26.25;;;21.38;;
35418;SDS011;21525;41.240;16.500;2022-11-11T03:19:17;27.88;;;23.23;;
35418;SDS011;21525;41.240;16.500;2022-11-11T03:22:02;33.33;;;24.77;;
35418;SDS011;21525;41.240;16.500;2022-11-11T03:24:46;39.90;;;32.92;;
35418;SDS011;21525;41.240;16.500;2022-11-11T03:27:49;26.88;;;22.27;;
35418;SDS011;21525;41.240;16.500;2022-11-11T03:30:34;29.17;;;22.83;;
35418;SDS011;21525;41.240;16.500;2022-11-11T03:33:19;29.90;;;24.08;;
35418;SDS011;21525;41.240;16.500;2022-11-11T03:36:03;27.73;;;21.35;;
35418;SDS011;21525;41.240;16.500;2022-11-11T03:38:48;37.28;;;29.40;;
35418;SDS011;21525;41.240;16.500;2022-11-11T03:41:32;44.42;;;34.15;;
35418;SDS011;21525;41.240;16.500;2022-11-11T03:44:17;31.30;;;23.73;;
35418;SDS011;21525;41.240;16.500;2022-11-11T03:47:01;37.10;;;28.98;;
35418;SDS011;21525;41.240;16.500;2022-11-11T03:49:46;29.80;;;23.98;;
35418;SDS011;21525;41.240;16.500;2022-11-11T03:52:30;27.23;;;22.23;;
35418;SDS011;21525;41.240;16.500;2022-11-11T03:55:15;31.80;;;25.05;;
35418;SDS011;21525;41.240;16.500;2022-11-11T03:57:59;38.17;;;28.30;;
35418;SDS011;21525;41.240;16.500;2022-11-11T04:00:43;30.02;;;23.13;;
35418;SDS011;21525;41.240;16.500;2022-11-11T04:03:28;27.15;;;22.67;;
35418;SDS011;21525;41.240;16.500;2022-11-11T04:06:31;33.25;;;29.35;;
35418;SDS011;21525;41.240;16.500;2022-11-11T04:09:34;37.75;;;30.73;;
35418;SDS011;21525;41.240;16.500;2022-11-11T04:12:38;39.92;;;30.35;;
35418;SDS011;21525;41.240;16.500;2022-11-11T04:15:43;35.95;;;27.27;;
35418;SDS011;21525;41.240;16.500;2022-11-11T04:18:46;40.78;;;33.55;;
35418;SDS011;21525;41.240;16.500;2022-11-11T04:21:50;52.55;;;36.90;;
35418;SDS011;21525;41.240;16.500;2022-11-11T04:24:34;65.32;;;46.45;;
35418;SDS011;21525;41.240;16.500;2022-11-11T04:27:38;33.17;;;27.80;;
35418;SDS011;21525;41.240;16.500;2022-11-11T04:30:22;28.80;;;24.42;;
35418;SDS011;21525;41.240;16.500;2022-11-11T04:33:06;34.67;;;25.13;;
35418;SDS011;21525;41.240;16.500;2022-11-11T04:35:52;31.15;;;25.02;;
35418;SDS011;21525;41.240;16.500;2022-11-11T04:38:37;31.02;;;23.08;;
35418;SDS011;21525;41.240;16.500;2022-11-11T04:41:40;35.80;;;26.77;;
35418;SDS011;21525;41.240;16.500;2022-11-11T04:44:24;34.30;;;25.98;;
35418;SDS011;21525;41.240;16.500;2022-11-11T04:47:29;30.15;;;23.02;;
35418;SDS011;21525;41.240;16.500;2022-11-11T04:50:14;32.45;;;22.95;;
35418;SDS011;21525;41.240;16.500;2022-11-11T04:52:59;31.38;;;23.63;;
35418;SDS011;21525;41.240;16.500;2022-11-11T04:55:44;31.15;;;24.73;;
35418;SDS011;21525;41.240;16.500;2022-11-11T04:58:47;39.50;;;30.88;;
35418;SDS011;21525;41.240;16.500;2022-11-11T05:01:52;41.22;;;30.90;;
35418;SDS011;21525;41.240;16.500;2022-11-11T05:04:55;35.78;;;25.48;;
35418;SDS011;21525;41.240;16.500;2022-11-11T05:07:40;38.47;;;25.90;;
35418;SDS011;21525;41.240;16.500;2022-11-11T05:10:44;40.78;;;30.15;;
35418;SDS011;21525;41.240;16.500;2022-11-11T05:13:28;55.90;;;37.40;;
35418;SDS011;21525;41.240;16.500;2022-11-11T05:16:36;51.08;;;37.17;;
35418;SDS011;21525;41.240;16.500;2022-11-11T05:19:41;44.28;;;33.22;;
35418;SDS011;21525;41.240;16.500;2022-11-11T05:22:45;45.78;;;31.20;;
35418;SDS011;21525;41.240;16.500;2022-11-11T05:25:29;50.90;;;36.03;;
35418;SDS011;21525;41.240;16.500;2022-11-11T05:28:16;46.08;;;32.55;;
35418;SDS011;21525;41.240;16.500;2022-11-11T05:31:01;52.65;;;35.75;;
35418;SDS011;21525;41.240;16.500;2022-11-11T05:33:45;56.08;;;39.35;;
35418;SDS011;21525;41.240;16.500;2022-11-11T05:36:30;64.85;;;44.35;;
35418;SDS011;21525;41.240;16.500;2022-11-11T05:39:14;70.13;;;47.38;;
35418;SDS011;21525;41.240;16.500;2022-11-11T05:41:58;69.00;;;46.72;;
35418;SDS011;21525;41.240;16.500;2022-11-11T05:44:43;68.75;;;46.83;;
35418;SDS011;21525;41.240;16.500;2022-11-11T05:47:27;72.32;;;47.13;;
35418;SDS011;21525;41.240;16.500;2022-11-11T05:50:11;68.30;;;45.38;;
35418;SDS011;21525;41.240;16.500;2022-11-11T05:52:56;80.40;;;48.80;;
35418;SDS011;21525;41.240;16.500;2022-11-11T05:55:40;78.35;;;52.25;;
35418;SDS011;21525;41.240;16.500;2022-11-11T05:58:24;73.70;;;48.92;;
35418;SDS011;21525;41.240;16.500;2022-11-11T06:01:09;71.28;;;48.95;;
35418;SDS011;21525;41.240;16.500;2022-11-11T06:03:53;66.85;;;46.58;;
35418;SDS011;21525;41.240;16.500;2022-11-11T06:06:38;78.70;;;48.85;;
35418;SDS011;21525;41.240;16.500;2022-11-11T06:09:22;75.78;;;49.25;;
35418;SDS011;21525;41.240;16.500;2022-11-11T06:12:06;69.25;;;46.45;;
35418;SDS011;21525;41.240;16.500;2022-11-11T06:14:50;65.53;;;46.75;;
35418;SDS011;21525;41.240;16.500;2022-11-11T06:17:35;69.63;;;48.05;;
35418;SDS011;21525;41.240;16.500;2022-11-11T06:20:21;68.97;;;46.80;;
35418;SDS011;21525;41.240;16.500;2022-11-11T06:23:05;68.63;;;49.50;;
35418;SDS011;21525;41.240;16.500;2022-11-11T06:25:50;68.38;;;49.35;;
35418;SDS011;21525;41.240;16.500;2022-11-11T06:28:54;67.03;;;46.85;;
35418;SDS011;21525;41.240;16.500;2022-11-11T06:31:39;56.78;;;41.03;;
35418;SDS011;21525;41.240;16.500;2022-11-11T06:34:24;55.65;;;39.88;;
35418;SDS011;21525;41.240;16.500;2022-11-11T06:37:08;51.40;;;37.20;;
35418;SDS011;21525;41.240;16.500;2022-11-11T06:39:52;45.97;;;35.65;;
35418;SDS011;21525;41.240;16.500;2022-11-11T06:42:37;49.83;;;36.60;;
35418;SDS011;21525;41.240;16.500;2022-11-11T06:45:22;50.83;;;36.70;;
35418;SDS011;21525;41.240;16.500;2022-11-11T06:48:10;44.47;;;35.58;;
35418;SDS011;21525;41.240;16.500;2022-11-11T06:50:59;48.10;;;36.53;;
35418;SDS011;21525;41.240;16.500;2022-11-11T06:53:48;47.33;;;35.67;;
35418;SDS011;21525;41.240;16.500;2022-11-11T06:56:32;46.15;;;35.33;;
35418;SDS011;21525;41.240;16.500;2022-11-11T06:59:17;44.20;;;34.67;;
35418;SDS011;21525;41.240;16.500;2022-11-11T07:02:01;43.35;;;35.97;;
35418;SDS011;21525;41.240;16.500;2022-11-11T07:04:46;44.20;;;34.38;;
35418;SDS011;21525;41.240;16.500;2022-11-11T07:07:30;42.72;;;33.72;;
35418;SDS011;21525;41.240;16.500;2022-11-11T07:10:14;45.17;;;35.60;;
35418;SDS011;21525;41.240;16.500;2022-11-11T07:13:00;38.67;;;32.65;;
35418;SDS011;21525;41.240;16.500;2022-11-11T07:15:45;41.28;;;32.85;;
35418;SDS011;21525;41.240;16.500;2022-11-11T07:18:30;39.58;;;32.92;;
35418;SDS011;21525;41.240;16.500;2022-11-11T07:21:14;39.38;;;32.53;;
35418;SDS011;21525;41.240;16.500;2022-11-11T07:23:59;38.45;;;33.42;;
35418;SDS011;21525;41.240;16.500;2022-11-11T07:26:43;38.38;;;31.52;;
35418;SDS011;21525;41.240;16.500;2022-11-11T07:29:27;38.17;;;32.92;;
35418;SDS011;21525;41.240;16.500;2022-11-11T07:32:12;36.42;;;31.90;;
35418;SDS011;21525;41.240;16.500;2022-11-11T07:34:56;38.33;;;31.10;;
35418;SDS011;21525;41.240;16.500;2022-11-11T07:37:40;36.28;;;30.25;;
35418;SDS011;21525;41.240;16.500;2022-11-11T07:40:25;34.80;;;30.90;;
35418;SDS011;21525;41.240;16.500;2022-11-11T07:43:09;37.33;;;29.27;;
35418;SDS011;21525;41.240;16.500;2022-11-11T07:45:54;34.70;;;29.52;;
35418;SDS011;21525;41.240;16.500;2022-11-11T07:48:38;35.83;;;30.05;;
35418;SDS011;21525;41.240;16.500;2022-11-11T07:51:23;34.60;;;29.02;;
35418;SDS011;21525;41.240;16.500;2022-11-11T07:54:07;32.00;;;28.58;;
35418;SDS011;21525;41.240;16.500;2022-11-11T07:56:52;34.42;;;28.70;;
35418;SDS011;21525;41.240;16.500;2022-11-11T07:59:36;37.03;;;29.63;;
35418;SDS011;21525;41.240;16.500;2022-11-11T08:02:20;32.63;;;28.70;;
35418;SDS011;21525;41.240;16.500;2022-11-11T08:05:05;33.50;;;27.58;;
35418;SDS011;21525;41.240;16.500;2022-11-11T08:07:49;36.20;;;29.08;;
35418;SDS011;21525;41.240;16.500;2022-11-11T08:10:34;37.42;;;27.92;;
35418;SDS011;21525;41.240;16.500;2022-11-11T08:13:18;41.50;;;27.15;;
35418;SDS011;21525;41.240;16.500;2022-11-11T08:16:22;43.00;;;29.95;;
35418;SDS011;21525;41.240;16.500;2022-11-11T08:19:07;45.65;;;33.97;;
35418;SDS011;21525;41.240;16.500;2022-11-11T08:21:51;69.82;;;33.92;;
35418;SDS011;21525;41.240;16.500;2022-11-11T08:24:35;54.45;;;33.58;;
35418;SDS011;21525;41.240;16.500;2022-11-11T08:27:19;50.92;;;29.70;;
35418;SDS011;21525;41.240;16.500;2022-11-11T08:30:05;44.90;;;29.10;;
35418;SDS011;21525;41.240;16.500;2022-11-11T08:32:57;43.47;;;28.23;;
35418;SDS011;21525;41.240;16.500;2022-11-11T08:35:42;42.55;;;27.70;;
35418;SDS011;21525;41.240;16.500;2022-11-11T08:38:27;34.67;;;23.52;;
35418;SDS011;21525;41.240;16.500;2022-11-11T08:41:11;30.27;;;20.23;;
35418;SDS011;21525;41.240;16.500;2022-11-11T08:43:55;30.10;;;19.08;;
35418;SDS011;21525;41.240;16.500;2022-11-11T08:46:40;30.60;;;17.92;;
35418;SDS011;21525;41.240;16.500;2022-11-11T08:49:25;40.15;;;20.48;;
35418;SDS011;21525;41.240;16.500;2022-11-11T08:52:09;30.65;;;17.52;;
35418;SDS011;21525;41.240;16.500;2022-11-11T08:54:53;25.08;;;16.92;;
35418;SDS011;21525;41.240;16.500;2022-11-11T08:57:37;26.33;;;16.73;;
35418;SDS011;21525;41.240;16.500;2022-11-11T09:00:23;28.50;;;17.63;;
35418;SDS011;21525;41.240;16.500;2022-11-11T09:03:10;29.35;;;16.30;;
35418;SDS011;21525;41.240;16.500;2022-11-11T09:05:55;30.05;;;15.18;;
35418;SDS011;21525;41.240;16.500;2022-11-11T09:08:40;23.88;;;12.90;;
35418;SDS011;21525;41.240;16.500;2022-11-11T09:11:26;23.73;;;13.25;;
35418;SDS011;21525;41.240;16.500;2022-11-11T09:14:11;22.98;;;12.43;;
35418;SDS011;21525;41.240;16.500;2022-11-11T09:16:55;22.00;;;12.07;;
35418;SDS011;21525;41.240;16.500;2022-11-11T09:19:40;20.98;;;10.57;;
35418;SDS011;21525;41.240;16.500;2022-11-11T09:22:24;23.10;;;11.38;;
35418;SDS011;21525;41.240;16.500;2022-11-11T09:25:09;21.15;;;11.25;;
35418;SDS011;21525;41.240;16.500;2022-11-11T09:27:54;25.15;;;13.30;;
35418;SDS011;21525;41.240;16.500;2022-11-11T09:30:42;21.85;;;10.68;;
35418;SDS011;21525;41.240;16.500;2022-11-11T09:33:27;16.48;;;10.00;;
35418;SDS011;21525;41.240;16.500;2022-11-11T09:36:11;19.05;;;11.40;;
35418;SDS011;21525;41.240;16.500;2022-11-11T09:38:56;27.63;;;11.55;;
35418;SDS011;21525;41.240;16.500;2022-11-11T09:50:25;14.32;;;7.55;;
35418;SDS011;21525;41.240;16.500;2022-11-11T09:53:18;18.90;;;7.13;;
35418;SDS011;21525;41.240;16.500;2022-11-11T09:56:13;16.05;;;7.43;;
35418;SDS011;21525;41.240;16.500;2022-11-11T09:59:04;23.20;;;7.78;;
35418;SDS011;21525;41.240;16.500;2022-11-11T10:01:55;16.35;;;6.70;;
35418;SDS011;21525;41.240;16.500;2022-11-11T10:04:45;13.68;;;6.93;;
35418;SDS011;21525;41.240;16.500;2022-11-11T10:07:39;14.95;;;7.03;;
35418;SDS011;21525;41.240;16.500;2022-11-11T10:10:41;12.70;;;6.25;;
35418;SDS011;21525;41.240;16.500;2022-11-11T10:13:29;15.45;;;7.32;;
35418;SDS011;21525;41.240;16.500;2022-11-11T10:23:16;13.82;;;7.90;;
35418;SDS011;21525;41.240;16.500;2022-11-11T10:26:06;20.45;;;7.93;;
35418;SDS011;21525;41.240;16.500;2022-11-11T10:29:03;13.90;;;7.85;;
35418;SDS011;21525;41.240;16.500;2022-11-11T10:31:56;15.90;;;7.25;;
35418;SDS011;21525;41.240;16.500;2022-11-11T10:34:49;17.83;;;8.45;;
35418;SDS011;21525;41.240;16.500;2022-11-11T10:37:40;16.17;;;9.23;;
35418;SDS011;21525;41.240;16.500;2022-11-11T10:40:31;10.93;;;6.50;;
35418;SDS011;21525;41.240;16.500;2022-11-11T10:43:21;19.17;;;8.10;;
35418;SDS011;21525;41.240;16.500;2022-11-11T10:49:14;16.65;;;6.70;;
35418;SDS011;21525;41.240;16.500;2022-11-11T10:54:57;11.07;;;4.78;;
35418;SDS011;21525;41.240;16.500;2022-11-11T11:00:43;12.23;;;4.43;;
35418;SDS011;21525;41.240;16.500;2022-11-11T11:06:26;12.75;;;5.43;;
35418;SDS011;21525;41.240;16.500;2022-11-11T11:14:57;9.25;;;5.20;;
35418;SDS011;21525;41.240;16.500;2022-11-11T11:23:43;15.65;;;6.18;;
35418;SDS011;21525;41.240;16.500;2022-11-11T11:26:41;11.90;;;5.90;;
35418;SDS011;21525;41.240;16.500;2022-11-11T11:29:29;13.32;;;6.65;;
35418;SDS011;21525;41.240;16.500;2022-11-11T11:35:04;16.10;;;6.57;;
35418;SDS011;21525;41.240;16.500;2022-11-11T11:37:49;13.82;;;6.75;;
35418;SDS011;21525;41.240;16.500;2022-11-11T11:40:48;16.83;;;6.00;;
35418;SDS011;21525;41.240;16.500;2022-11-11T11:43:37;11.27;;;7.20;;
35418;SDS011;21525;41.240;16.500;2022-11-11T11:46:30;12.43;;;6.60;;
35418;SDS011;21525;41.240;16.500;2022-11-11T11:52:21;12.55;;;4.32;;
35418;SDS011;21525;41.240;16.500;2022-11-11T11:55:24;10.80;;;5.45;;
35418;SDS011;21525;41.240;16.500;2022-11-11T11:58:23;10.32;;;5.15;;
35418;SDS011;21525;41.240;16.500;2022-11-11T12:04:37;9.40;;;5.10;;
35418;SDS011;21525;41.240;16.500;2022-11-11T12:10:35;11.13;;;5.10;;
35418;SDS011;21525;41.240;16.500;2022-11-11T12:13:40;13.85;;;4.93;;
35418;SDS011;21525;41.240;16.500;2022-11-11T12:37:04;12.48;;;6.70;;
35418;SDS011;21525;41.240;16.500;2022-11-11T12:45:46;12.98;;;4.82;;
35418;SDS011;21525;41.240;16.500;2022-11-11T12:48:45;12.10;;;4.55;;
35418;SDS011;21525;41.240;16.500;2022-11-11T13:01:12;14.20;;;5.35;;
35418;SDS011;21525;41.240;16.500;2022-11-11T13:10:03;13.27;;;6.30;;
35418;SDS011;21525;41.240;16.500;2022-11-11T13:15:41;13.80;;;5.25;;
35418;SDS011;21525;41.240;16.500;2022-11-11T13:18:30;12.90;;;5.35;;
35418;SDS011;21525;41.240;16.500;2022-11-11T13:21:28;8.43;;;4.45;;
35418;SDS011;21525;41.240;16.500;2022-11-11T13:24:21;11.18;;;4.85;;
35418;SDS011;21525;41.240;16.500;2022-11-11T13:27:19;13.93;;;4.20;;
35418;SDS011;21525;41.240;16.500;2022-11-11T13:33:15;10.85;;;4.60;;
35418;SDS011;21525;41.240;16.500;2022-11-11T13:36:01;7.90;;;3.83;;
35418;SDS011;21525;41.240;16.500;2022-11-11T13:41:37;12.00;;;5.05;;
35418;SDS011;21525;41.240;16.500;2022-11-11T13:44:29;11.05;;;5.15;;
35418;SDS011;21525;41.240;16.500;2022-11-11T13:47:21;11.20;;;5.15;;
35418;SDS011;21525;41.240;16.500;2022-11-11T13:50:13;9.95;;;4.82;;
35418;SDS011;21525;41.240;16.500;2022-11-11T13:56:21;10.88;;;5.15;;
35418;SDS011;21525;41.240;16.500;2022-11-11T13:59:07;10.43;;;4.28;;
35418;SDS011;21525;41.240;16.500;2022-11-11T14:22:24;9.20;;;4.65;;
35418;SDS011;21525;41.240;16.500;2022-11-11T14:25:47;13.00;;;4.40;;
35418;SDS011;21525;41.240;16.500;2022-11-11T14:40:22;11.52;;;4.45;;
35418;SDS011;21525;41.240;16.500;2022-11-11T14:46:14;11.57;;;4.53;;
35418;SDS011;21525;41.240;16.500;2022-11-11T14:49:00;8.57;;;4.43;;
35418;SDS011;21525;41.240;16.500;2022-11-11T14:51:52;9.65;;;3.65;;
35418;SDS011;21525;41.240;16.500;2022-11-11T14:54:51;11.98;;;3.95;;
35418;SDS011;21525;41.240;16.500;2022-11-11T14:57:59;6.82;;;3.10;;
35418;SDS011;21525;41.240;16.500;2022-11-11T15:01:00;8.40;;;3.33;;
35418;SDS011;21525;41.240;16.500;2022-11-11T15:03:55;10.18;;;3.35;;
35418;SDS011;21525;41.240;16.500;2022-11-11T15:06:44;9.63;;;2.92;;
35418;SDS011;21525;41.240;16.500;2022-11-11T15:12:32;10.27;;;3.15;;
35418;SDS011;21525;41.240;16.500;2022-11-11T15:15:27;12.10;;;3.47;;
35418;SDS011;21525;41.240;16.500;2022-11-11T15:21:46;8.98;;;2.83;;
35418;SDS011;21525;41.240;16.500;2022-11-11T15:27:48;11.55;;;4.00;;
35418;SDS011;21525;41.240;16.500;2022-11-11T15:39:25;13.55;;;4.20;;
35418;SDS011;21525;41.240;16.500;2022-11-11T15:48:02;11.98;;;3.38;;
35418;SDS011;21525;41.240;16.500;2022-11-11T15:50:47;10.98;;;4.15;;
35418;SDS011;21525;41.240;16.500;2022-11-11T15:53:31;14.10;;;3.88;;
35418;SDS011;21525;41.240;16.500;2022-11-11T15:56:28;10.82;;;3.80;;
35418;SDS011;21525;41.240;16.500;2022-11-11T15:59:21;11.30;;;3.38;;
35418;SDS011;21525;41.240;16.500;2022-11-11T16:02:11;9.85;;;3.38;;
35418;SDS011;21525;41.240;16.500;2022-11-11T16:05:07;10.73;;;4.57;;
35418;SDS011;21525;41.240;16.500;2022-11-11T16:08:02;10.38;;;4.35;;
35418;SDS011;21525;41.240;16.500;2022-11-11T16:10:55;12.38;;;4.05;;
35418;SDS011;21525;41.240;16.500;2022-11-11T16:13:47;10.30;;;3.53;;
35418;SDS011;21525;41.240;16.500;2022-11-11T16:16:36;11.02;;;3.92;;
35418;SDS011;21525;41.240;16.500;2022-11-11T16:22:31;15.95;;;6.35;;
35418;SDS011;21525;41.240;16.500;2022-11-11T16:25:20;15.73;;;5.07;;
35418;SDS011;21525;41.240;16.500;2022-11-11T16:28:05;12.98;;;4.65;;
35418;SDS011;21525;41.240;16.500;2022-11-11T16:30:50;10.63;;;3.58;;
35418;SDS011;21525;41.240;16.500;2022-11-11T16:33:34;10.48;;;3.85;;
35418;SDS011;21525;41.240;16.500;2022-11-11T16:36:19;10.30;;;3.40;;
35418;SDS011;21525;41.240;16.500;2022-11-11T16:39:19;7.07;;;2.78;;
35418;SDS011;21525;41.240;16.500;2022-11-11T16:42:04;13.95;;;2.97;;
35418;SDS011;21525;41.240;16.500;2022-11-11T16:45:00;9.18;;;3.80;;
35418;SDS011;21525;41.240;16.500;2022-11-11T16:47:46;15.32;;;6.47;;
35418;SDS011;21525;41.240;16.500;2022-11-11T16:50:32;12.38;;;4.30;;
35418;SDS011;21525;41.240;16.500;2022-11-11T16:53:23;9.60;;;4.30;;
35418;SDS011;21525;41.240;16.500;2022-11-11T16:56:28;11.32;;;3.95;;
35418;SDS011;21525;41.240;16.500;2022-11-11T16:59:15;9.27;;;3.00;;
35418;SDS011;21525;41.240;16.500;2022-11-11T17:02:24;15.50;;;5.07;;
35418;SDS011;21525;41.240;16.500;2022-11-11T17:05:09;18.73;;;8.10;;
35418;SDS011;21525;41.240;16.500;2022-11-11T17:07:53;11.27;;;5.15;;
35418;SDS011;21525;41.240;16.500;2022-11-11T17:10:38;17.25;;;4.78;;
35418;SDS011;21525;41.240;16.500;2022-11-11T17:13:23;10.75;;;4.05;;
35418;SDS011;21525;41.240;16.500;2022-11-11T17:16:09;15.48;;;5.88;;
35418;SDS011;21525;41.240;16.500;2022-11-11T17:18:57;15.98;;;6.15;;
35418;SDS011;21525;41.240;16.500;2022-11-11T17:21:43;17.02;;;5.20;;
35418;SDS011;21525;41.240;16.500;2022-11-11T17:24:28;13.75;;;6.10;;
35418;SDS011;21525;41.240;16.500;2022-11-11T17:27:13;15.82;;;5.95;;
35418;SDS011;21525;41.240;16.500;2022-11-11T17:29:58;19.38;;;8.32;;
35418;SDS011;21525;41.240;16.500;2022-11-11T17:32:42;15.27;;;4.65;;
35418;SDS011;21525;41.240;16.500;2022-11-11T17:35:27;13.35;;;5.43;;
35418;SDS011;21525;41.240;16.500;2022-11-11T17:38:11;14.98;;;5.50;;
35418;SDS011;21525;41.240;16.500;2022-11-11T17:40:55;11.85;;;6.47;;
35418;SDS011;21525;41.240;16.500;2022-11-11T17:43:39;17.70;;;6.53;;
35418;SDS011;21525;41.240;16.500;2022-11-11T17:46:24;16.48;;;7.97;;
35418;SDS011;21525;41.240;16.500;2022-11-11T17:49:09;14.43;;;6.80;;
35418;SDS011;21525;41.240;16.500;2022-11-11T17:51:53;15.30;;;7.97;;
35418;SDS011;21525;41.240;16.500;2022-11-11T17:54:38;12.00;;;6.72;;
35418;SDS011;21525;41.240;16.500;2022-11-11T17:57:22;15.75;;;8.60;;
35418;SDS011;21525;41.240;16.500;2022-11-11T18:00:07;12.45;;;6.97;;
35418;SDS011;21525;41.240;16.500;2022-11-11T18:02:52;13.60;;;7.45;;
35418;SDS011;21525;41.240;16.500;2022-11-11T18:05:37;13.02;;;7.70;;
35418;SDS011;21525;41.240;16.500;2022-11-11T18:08:21;14.93;;;8.02;;
35418;SDS011;21525;41.240;16.500;2022-11-11T18:11:06;12.15;;;7.00;;
35418;SDS011;21525;41.240;16.500;2022-11-11T18:13:51;12.65;;;7.65;;
35418;SDS011;21525;41.240;16.500;2022-11-11T18:16:36;15.45;;;7.45;;
35418;SDS011;21525;41.240;16.500;2022-11-11T18:19:21;14.25;;;7.70;;
35418;SDS011;21525;41.240;16.500;2022-11-11T18:22:05;15.05;;;7.10;;
35418;SDS011;21525;41.240;16.500;2022-11-11T18:24:50;13.10;;;6.97;;
35418;SDS011;21525;41.240;16.500;2022-11-11T18:27:35;14.20;;;6.03;;
35418;SDS011;21525;41.240;16.500;2022-11-11T18:30:20;12.07;;;6.63;;
35418;SDS011;21525;41.240;16.500;2022-11-11T18:33:05;12.32;;;6.20;;
35418;SDS011;21525;41.240;16.500;2022-11-11T18:35:50;14.27;;;5.78;;
35418;SDS011;21525;41.240;16.500;2022-11-11T18:38:34;18.90;;;6.55;;
35418;SDS011;21525;41.240;16.500;2022-11-11T18:41:19;14.63;;;6.07;;
35418;SDS011;21525;41.240;16.500;2022-11-11T18:44:07;13.30;;;6.20;;
35418;SDS011;21525;41.240;16.500;2022-11-11T18:46:51;15.85;;;6.75;;
35418;SDS011;21525;41.240;16.500;2022-11-11T18:49:36;15.98;;;6.90;;
35418;SDS011;21525;41.240;16.500;2022-11-11T18:52:21;13.20;;;6.07;;
35418;SDS011;21525;41.240;16.500;2022-11-11T18:55:05;13.77;;;5.78;;
35418;SDS011;21525;41.240;16.500;2022-11-11T18:57:50;14.38;;;6.22;;
35418;SDS011;21525;41.240;16.500;2022-11-11T19:00:34;14.52;;;5.47;;
35418;SDS011;21525;41.240;16.500;2022-11-11T19:03:19;14.93;;;6.35;;
35418;SDS011;21525;41.240;16.500;2022-11-11T19:06:04;12.80;;;6.82;;
35418;SDS011;21525;41.240;16.500;2022-11-11T19:08:55;12.82;;;6.65;;
35418;SDS011;21525;41.240;16.500;2022-11-11T19:11:42;13.45;;;6.20;;
35418;SDS011;21525;41.240;16.500;2022-11-11T19:14:27;13.85;;;6.20;;
35418;SDS011;21525;41.240;16.500;2022-11-11T19:17:12;15.30;;;7.03;;
35418;SDS011;21525;41.240;16.500;2022-11-11T19:19:56;12.68;;;6.50;;
35418;SDS011;21525;41.240;16.500;2022-11-11T19:22:40;17.48;;;6.82;;